sensor_id;sensor_type;location;lat;lon;timestamp;P1;durP1;ratioP1;P2;durP2;ratioP2
22995;SDS011;11664;49.774;8.650;2023-07-09T00:02:19;5.45;;;4.95;;
22995;SDS011;11664;49.774;8.650;2023-07-09T00:04:45;5.88;;;5.32;;
22995;SDS011;11664;49.774;8.650;2023-07-09T00:07:30;6.60;;;6.05;;
22995;SDS011;11664;49.774;8.650;2023-07-09T00:09:56;6.93;;;6.43;;
22995;SDS011;11664;49.774;8.650;2023-07-09T00:12:23;7.35;;;6.72;;
22995;SDS011;11664;49.774;8.650;2023-07-09T00:14:49;6.57;;;6.05;;
22995;SDS011;11664;49.774;8.650;2023-07-09T00:17:19;7.65;;;7.00;;
22995;SDS011;11664;49.774;8.650;2023-07-09T00:19:50;8.48;;;5.20;;
22995;SDS011;11664;49.774;8.650;2023-07-09T00:22:16;6.35;;;5.25;;
22995;SDS011;11664;49.774;8.650;2023-07-09T00:24:44;6.18;;;5.68;;
22995;SDS011;11664;49.774;8.650;2023-07-09T00:27:11;7.40;;;6.65;;
22995;SDS011;11664;49.774;8.650;2023-07-09T00:29:37;6.57;;;6.07;;
22995;SDS011;11664;49.774;8.650;2023-07-09T00:32:03;6.93;;;6.22;;
22995;SDS011;11664;49.774;8.650;2023-07-09T00:34:30;10.80;;;5.43;;
22995;SDS011;11664;49.774;8.650;2023-07-09T00:36:55;9.80;;;6.75;;
22995;SDS011;11664;49.774;8.650;2023-07-09T00:39:21;7.40;;;6.70;;
22995;SDS011;11664;49.774;8.650;2023-07-09T00:41:48;8.35;;;7.70;;
22995;SDS011;11664;49.774;8.650;2023-07-09T00:44:30;7.07;;;6.43;;
22995;SDS011;11664;49.774;8.650;2023-07-09T00:49:39;9.55;;;8.68;;
22995;SDS011;11664;49.774;8.650;2023-07-09T00:52:24;8.45;;;7.85;;
22995;SDS011;11664;49.774;8.650;2023-07-09T00:54:54;10.05;;;9.32;;
22995;SDS011;11664;49.774;8.650;2023-07-09T00:57:22;7.00;;;6.03;;
22995;SDS011;11664;49.774;8.650;2023-07-09T00:59:51;5.72;;;5.30;;
22995;SDS011;11664;49.774;8.650;2023-07-09T01:02:21;6.60;;;5.00;;
22995;SDS011;11664;49.774;8.650;2023-07-09T01:04:55;8.80;;;6.30;;
22995;SDS011;11664;49.774;8.650;2023-07-09T01:07:25;6.22;;;5.72;;
22995;SDS011;11664;49.774;8.650;2023-07-09T01:09:52;5.82;;;5.32;;
22995;SDS011;11664;49.774;8.650;2023-07-09T01:12:18;7.55;;;6.97;;
22995;SDS011;11664;49.774;8.650;2023-07-09T01:14:45;5.68;;;4.93;;
22995;SDS011;11664;49.774;8.650;2023-07-09T01:17:13;5.57;;;5.07;;
22995;SDS011;11664;49.774;8.650;2023-07-09T01:19:40;6.18;;;5.68;;
22995;SDS011;11664;49.774;8.650;2023-07-09T01:22:12;5.53;;;5.00;;
22995;SDS011;11664;49.774;8.650;2023-07-09T01:27:14;8.40;;;7.75;;
22995;SDS011;11664;49.774;8.650;2023-07-09T01:29:41;9.50;;;8.70;;
22995;SDS011;11664;49.774;8.650;2023-07-09T01:32:08;8.48;;;7.72;;
22995;SDS011;11664;49.774;8.650;2023-07-09T01:34:35;7.88;;;7.18;;
22995;SDS011;11664;49.774;8.650;2023-07-09T01:37:00;8.82;;;8.02;;
22995;SDS011;11664;49.774;8.650;2023-07-09T01:39:26;9.40;;;8.70;;
22995;SDS011;11664;49.774;8.650;2023-07-09T01:41:55;8.50;;;7.80;;
22995;SDS011;11664;49.774;8.650;2023-07-09T01:44:21;8.55;;;7.88;;
22995;SDS011;11664;49.774;8.650;2023-07-09T01:46:48;8.05;;;7.25;;
22995;SDS011;11664;49.774;8.650;2023-07-09T01:49:14;10.50;;;8.02;;
22995;SDS011;11664;49.774;8.650;2023-07-09T01:51:40;6.80;;;5.93;;
22995;SDS011;11664;49.774;8.650;2023-07-09T01:54:06;6.82;;;6.22;;
22995;SDS011;11664;49.774;8.650;2023-07-09T01:56:31;7.20;;;6.70;;
22995;SDS011;11664;49.774;8.650;2023-07-09T01:58:57;8.48;;;7.72;;
22995;SDS011;11664;49.774;8.650;2023-07-09T02:01:26;6.85;;;6.25;;
22995;SDS011;11664;49.774;8.650;2023-07-09T02:03:55;6.25;;;5.82;;
22995;SDS011;11664;49.774;8.650;2023-07-09T02:06:20;7.65;;;6.95;;
22995;SDS011;11664;49.774;8.650;2023-07-09T02:08:49;7.57;;;7.00;;
22995;SDS011;11664;49.774;8.650;2023-07-09T02:11:14;8.02;;;7.15;;
22995;SDS011;11664;49.774;8.650;2023-07-09T02:13:40;8.57;;;7.97;;
22995;SDS011;11664;49.774;8.650;2023-07-09T02:16:05;11.30;;;10.48;;
22995;SDS011;11664;49.774;8.650;2023-07-09T02:18:31;13.38;;;12.57;;
22995;SDS011;11664;49.774;8.650;2023-07-09T02:20:56;11.98;;;11.15;;
22995;SDS011;11664;49.774;8.650;2023-07-09T02:23:26;11.13;;;10.35;;
22995;SDS011;11664;49.774;8.650;2023-07-09T02:25:52;11.48;;;10.77;;
22995;SDS011;11664;49.774;8.650;2023-07-09T02:28:17;10.15;;;9.35;;
22995;SDS011;11664;49.774;8.650;2023-07-09T02:30:43;6.63;;;5.97;;
22995;SDS011;11664;49.774;8.650;2023-07-09T02:33:08;6.18;;;5.72;;
22995;SDS011;11664;49.774;8.650;2023-07-09T02:35:34;7.22;;;6.68;;
22995;SDS011;11664;49.774;8.650;2023-07-09T02:38:00;6.63;;;5.10;;
22995;SDS011;11664;49.774;8.650;2023-07-09T02:40:26;9.90;;;7.93;;
22995;SDS011;11664;49.774;8.650;2023-07-09T02:42:52;6.75;;;6.15;;
22995;SDS011;11664;49.774;8.650;2023-07-09T02:45:17;8.60;;;8.05;;
22995;SDS011;11664;49.774;8.650;2023-07-09T02:47:43;9.35;;;8.75;;
22995;SDS011;11664;49.774;8.650;2023-07-09T02:50:08;6.97;;;6.38;;
22995;SDS011;11664;49.774;8.650;2023-07-09T02:52:34;5.82;;;5.38;;
22995;SDS011;11664;49.774;8.650;2023-07-09T02:54:59;6.07;;;5.53;;
22995;SDS011;11664;49.774;8.650;2023-07-09T02:57:25;7.60;;;7.00;;
22995;SDS011;11664;49.774;8.650;2023-07-09T02:59:50;10.20;;;9.52;;
22995;SDS011;11664;49.774;8.650;2023-07-09T03:02:16;8.32;;;6.85;;
22995;SDS011;11664;49.774;8.650;2023-07-09T03:04:41;6.95;;;6.32;;
22995;SDS011;11664;49.774;8.650;2023-07-09T03:07:07;9.85;;;9.15;;
22995;SDS011;11664;49.774;8.650;2023-07-09T03:09:32;10.30;;;9.55;;
22995;SDS011;11664;49.774;8.650;2023-07-09T03:11:58;11.52;;;10.75;;
22995;SDS011;11664;49.774;8.650;2023-07-09T03:14:23;7.50;;;7.00;;
22995;SDS011;11664;49.774;8.650;2023-07-09T03:16:49;7.03;;;6.43;;
22995;SDS011;11664;49.774;8.650;2023-07-09T03:19:14;7.57;;;7.07;;
22995;SDS011;11664;49.774;8.650;2023-07-09T03:21:40;8.68;;;7.90;;
22995;SDS011;11664;49.774;8.650;2023-07-09T03:24:06;9.63;;;9.02;;
22995;SDS011;11664;49.774;8.650;2023-07-09T03:26:32;4.95;;;4.55;;
22995;SDS011;11664;49.774;8.650;2023-07-09T03:28:57;7.22;;;6.53;;
22995;SDS011;11664;49.774;8.650;2023-07-09T03:31:23;5.88;;;5.40;;
22995;SDS011;11664;49.774;8.650;2023-07-09T03:33:49;6.55;;;6.03;;
22995;SDS011;11664;49.774;8.650;2023-07-09T03:36:16;8.98;;;8.18;;
22995;SDS011;11664;49.774;8.650;2023-07-09T03:38:43;11.23;;;10.43;;
22995;SDS011;11664;49.774;8.650;2023-07-09T03:41:09;8.35;;;7.82;;
22995;SDS011;11664;49.774;8.650;2023-07-09T03:43:34;6.25;;;5.85;;
22995;SDS011;11664;49.774;8.650;2023-07-09T03:46:00;8.13;;;7.40;;
22995;SDS011;11664;49.774;8.650;2023-07-09T03:48:25;7.88;;;7.22;;
22995;SDS011;11664;49.774;8.650;2023-07-09T03:50:53;9.38;;;8.55;;
22995;SDS011;11664;49.774;8.650;2023-07-09T03:53:18;7.55;;;6.97;;
22995;SDS011;11664;49.774;8.650;2023-07-09T03:55:50;6.90;;;6.30;;
22995;SDS011;11664;49.774;8.650;2023-07-09T03:58:17;7.32;;;6.03;;
22995;SDS011;11664;49.774;8.650;2023-07-09T04:00:42;6.35;;;5.75;;
22995;SDS011;11664;49.774;8.650;2023-07-09T04:03:09;6.80;;;6.22;;
22995;SDS011;11664;49.774;8.650;2023-07-09T04:05:35;8.93;;;8.00;;
22995;SDS011;11664;49.774;8.650;2023-07-09T04:08:01;8.57;;;7.88;;
22995;SDS011;11664;49.774;8.650;2023-07-09T04:10:26;7.60;;;7.03;;
22995;SDS011;11664;49.774;8.650;2023-07-09T04:12:52;8.43;;;7.82;;
22995;SDS011;11664;49.774;8.650;2023-07-09T04:15:18;10.60;;;6.03;;
22995;SDS011;11664;49.774;8.650;2023-07-09T04:17:43;7.75;;;7.15;;
22995;SDS011;11664;49.774;8.650;2023-07-09T04:20:09;7.25;;;6.75;;
22995;SDS011;11664;49.774;8.650;2023-07-09T04:22:36;8.90;;;8.20;;
22995;SDS011;11664;49.774;8.650;2023-07-09T04:25:02;8.02;;;6.93;;
22995;SDS011;11664;49.774;8.650;2023-07-09T04:27:30;8.38;;;7.55;;
22995;SDS011;11664;49.774;8.650;2023-07-09T04:29:55;7.57;;;6.88;;
22995;SDS011;11664;49.774;8.650;2023-07-09T04:32:21;8.48;;;7.72;;
22995;SDS011;11664;49.774;8.650;2023-07-09T04:34:46;7.43;;;6.75;;
22995;SDS011;11664;49.774;8.650;2023-07-09T04:37:13;5.97;;;5.38;;
22995;SDS011;11664;49.774;8.650;2023-07-09T04:39:38;7.85;;;6.47;;
22995;SDS011;11664;49.774;8.650;2023-07-09T04:42:09;6.78;;;6.18;;
22995;SDS011;11664;49.774;8.650;2023-07-09T04:44:36;6.18;;;5.20;;
22995;SDS011;11664;49.774;8.650;2023-07-09T04:47:02;5.22;;;4.57;;
22995;SDS011;11664;49.774;8.650;2023-07-09T04:49:28;6.78;;;5.95;;
22995;SDS011;11664;49.774;8.650;2023-07-09T04:51:53;6.85;;;6.32;;
22995;SDS011;11664;49.774;8.650;2023-07-09T04:54:21;9.43;;;8.07;;
22995;SDS011;11664;49.774;8.650;2023-07-09T04:56:47;10.13;;;9.13;;
22995;SDS011;11664;49.774;8.650;2023-07-09T04:59:13;10.00;;;9.07;;
22995;SDS011;11664;49.774;8.650;2023-07-09T05:01:39;13.27;;;12.25;;
22995;SDS011;11664;49.774;8.650;2023-07-09T05:04:05;9.13;;;8.30;;
22995;SDS011;11664;49.774;8.650;2023-07-09T05:06:31;15.80;;;14.77;;
22995;SDS011;11664;49.774;8.650;2023-07-09T05:08:57;16.15;;;15.07;;
22995;SDS011;11664;49.774;8.650;2023-07-09T05:11:23;10.85;;;9.73;;
22995;SDS011;11664;49.774;8.650;2023-07-09T05:13:48;7.38;;;6.25;;
22995;SDS011;11664;49.774;8.650;2023-07-09T05:16:14;6.97;;;6.40;;
22995;SDS011;11664;49.774;8.650;2023-07-09T05:18:39;7.22;;;6.50;;
22995;SDS011;11664;49.774;8.650;2023-07-09T05:21:05;8.02;;;7.53;;
22995;SDS011;11664;49.774;8.650;2023-07-09T05:23:30;9.40;;;8.55;;
22995;SDS011;11664;49.774;8.650;2023-07-09T05:25:57;17.92;;;16.75;;
22995;SDS011;11664;49.774;8.650;2023-07-09T05:28:23;16.20;;;15.07;;
22995;SDS011;11664;49.774;8.650;2023-07-09T05:30:48;9.55;;;8.85;;
22995;SDS011;11664;49.774;8.650;2023-07-09T05:33:14;10.40;;;9.70;;
22995;SDS011;11664;49.774;8.650;2023-07-09T05:35:42;16.45;;;15.32;;
22995;SDS011;11664;49.774;8.650;2023-07-09T05:38:07;9.02;;;8.43;;
22995;SDS011;11664;49.774;8.650;2023-07-09T05:40:33;7.65;;;6.63;;
22995;SDS011;11664;49.774;8.650;2023-07-09T05:42:58;7.75;;;7.05;;
22995;SDS011;11664;49.774;8.650;2023-07-09T05:45:24;7.72;;;7.13;;
22995;SDS011;11664;49.774;8.650;2023-07-09T05:47:49;6.18;;;5.57;;
22995;SDS011;11664;49.774;8.650;2023-07-09T05:50:15;7.18;;;6.57;;
22995;SDS011;11664;49.774;8.650;2023-07-09T05:52:40;20.70;;;19.42;;
22995;SDS011;11664;49.774;8.650;2023-07-09T05:55:06;7.78;;;7.10;;
22995;SDS011;11664;49.774;8.650;2023-07-09T05:57:32;7.30;;;6.60;;
22995;SDS011;11664;49.774;8.650;2023-07-09T05:59:57;12.07;;;10.98;;
22995;SDS011;11664;49.774;8.650;2023-07-09T06:02:23;15.95;;;14.90;;
22995;SDS011;11664;49.774;8.650;2023-07-09T06:04:48;8.45;;;7.65;;
22995;SDS011;11664;49.774;8.650;2023-07-09T06:07:17;11.73;;;10.73;;
22995;SDS011;11664;49.774;8.650;2023-07-09T06:09:43;15.55;;;14.48;;
22995;SDS011;11664;49.774;8.650;2023-07-09T06:12:11;10.98;;;10.27;;
22995;SDS011;11664;49.774;8.650;2023-07-09T06:14:37;10.73;;;9.82;;
22995;SDS011;11664;49.774;8.650;2023-07-09T06:17:02;24.02;;;22.23;;
22995;SDS011;11664;49.774;8.650;2023-07-09T06:19:28;21.38;;;19.98;;
22995;SDS011;11664;49.774;8.650;2023-07-09T06:21:54;26.50;;;24.92;;
22995;SDS011;11664;49.774;8.650;2023-07-09T06:24:21;15.90;;;14.77;;
22995;SDS011;11664;49.774;8.650;2023-07-09T06:26:47;12.15;;;11.18;;
22995;SDS011;11664;49.774;8.650;2023-07-09T06:29:12;9.20;;;8.55;;
22995;SDS011;11664;49.774;8.650;2023-07-09T06:31:38;6.75;;;6.15;;
22995;SDS011;11664;49.774;8.650;2023-07-09T06:34:05;11.20;;;10.30;;
22995;SDS011;11664;49.774;8.650;2023-07-09T06:36:32;12.32;;;11.25;;
22995;SDS011;11664;49.774;8.650;2023-07-09T06:38:58;8.27;;;7.57;;
22995;SDS011;11664;49.774;8.650;2023-07-09T06:41:23;14.23;;;13.25;;
22995;SDS011;11664;49.774;8.650;2023-07-09T06:43:49;8.23;;;7.65;;
22995;SDS011;11664;49.774;8.650;2023-07-09T06:46:15;9.73;;;8.93;;
22995;SDS011;11664;49.774;8.650;2023-07-09T06:48:43;8.27;;;7.57;;
22995;SDS011;11664;49.774;8.650;2023-07-09T06:51:09;7.18;;;6.63;;
22995;SDS011;11664;49.774;8.650;2023-07-09T06:53:35;8.00;;;7.43;;
22995;SDS011;11664;49.774;8.650;2023-07-09T06:56:01;9.65;;;8.95;;
22995;SDS011;11664;49.774;8.650;2023-07-09T06:58:28;9.75;;;9.02;;
22995;SDS011;11664;49.774;8.650;2023-07-09T07:00:56;7.57;;;6.97;;
22995;SDS011;11664;49.774;8.650;2023-07-09T07:03:22;29.88;;;27.90;;
22995;SDS011;11664;49.774;8.650;2023-07-09T07:05:49;41.42;;;38.83;;
22995;SDS011;11664;49.774;8.650;2023-07-09T07:08:21;21.38;;;20.10;;
22995;SDS011;11664;49.774;8.650;2023-07-09T07:10:48;28.85;;;27.20;;
22995;SDS011;11664;49.774;8.650;2023-07-09T07:13:14;30.27;;;28.25;;
22995;SDS011;11664;49.774;8.650;2023-07-09T07:15:40;31.83;;;29.83;;
22995;SDS011;11664;49.774;8.650;2023-07-09T07:18:06;31.15;;;29.30;;
22995;SDS011;11664;49.774;8.650;2023-07-09T07:20:33;27.83;;;25.77;;
22995;SDS011;11664;49.774;8.650;2023-07-09T07:22:59;30.23;;;28.50;;
22995;SDS011;11664;49.774;8.650;2023-07-09T07:25:25;29.25;;;27.55;;
22995;SDS011;11664;49.774;8.650;2023-07-09T07:27:51;27.33;;;25.70;;
22995;SDS011;11664;49.774;8.650;2023-07-09T07:30:16;21.83;;;20.42;;
22995;SDS011;11664;49.774;8.650;2023-07-09T07:32:46;17.73;;;16.52;;
22995;SDS011;11664;49.774;8.650;2023-07-09T07:35:12;36.83;;;34.75;;
22995;SDS011;11664;49.774;8.650;2023-07-09T07:37:40;37.83;;;35.30;;
22995;SDS011;11664;49.774;8.650;2023-07-09T07:40:06;29.92;;;28.02;;
22995;SDS011;11664;49.774;8.650;2023-07-09T07:42:32;32.35;;;30.15;;
22995;SDS011;11664;49.774;8.650;2023-07-09T07:44:57;41.42;;;38.95;;
22995;SDS011;11664;49.774;8.650;2023-07-09T07:47:23;44.03;;;41.58;;
22995;SDS011;11664;49.774;8.650;2023-07-09T07:49:49;37.88;;;35.53;;
22995;SDS011;11664;49.774;8.650;2023-07-09T07:52:14;33.22;;;31.15;;
22995;SDS011;11664;49.774;8.650;2023-07-09T07:54:40;31.90;;;29.83;;
22995;SDS011;11664;49.774;8.650;2023-07-09T07:57:05;41.70;;;38.97;;
22995;SDS011;11664;49.774;8.650;2023-07-09T07:59:33;35.38;;;33.33;;
22995;SDS011;11664;49.774;8.650;2023-07-09T08:02:00;21.70;;;20.38;;
22995;SDS011;11664;49.774;8.650;2023-07-09T08:04:27;19.02;;;17.75;;
22995;SDS011;11664;49.774;8.650;2023-07-09T08:06:52;10.18;;;9.20;;
22995;SDS011;11664;49.774;8.650;2023-07-09T08:09:18;13.30;;;12.35;;
22995;SDS011;11664;49.774;8.650;2023-07-09T08:11:44;15.50;;;14.50;;
22995;SDS011;11664;49.774;8.650;2023-07-09T08:14:09;11.75;;;10.85;;
22995;SDS011;11664;49.774;8.650;2023-07-09T08:16:36;9.57;;;8.77;;
22995;SDS011;11664;49.774;8.650;2023-07-09T08:19:01;8.65;;;7.85;;
22995;SDS011;11664;49.774;8.650;2023-07-09T08:21:27;7.53;;;6.95;;
22995;SDS011;11664;49.774;8.650;2023-07-09T08:23:52;8.60;;;7.82;;
22995;SDS011;11664;49.774;8.650;2023-07-09T08:26:18;8.27;;;6.05;;
22995;SDS011;11664;49.774;8.650;2023-07-09T08:28:43;6.50;;;5.90;;
22995;SDS011;11664;49.774;8.650;2023-07-09T08:31:09;6.85;;;6.15;;
22995;SDS011;11664;49.774;8.650;2023-07-09T08:33:35;7.88;;;7.22;;
22995;SDS011;11664;49.774;8.650;2023-07-09T08:36:01;7.82;;;7.10;;
22995;SDS011;11664;49.774;8.650;2023-07-09T08:38:27;10.55;;;7.28;;
22995;SDS011;11664;49.774;8.650;2023-07-09T08:40:57;8.43;;;6.03;;
22995;SDS011;11664;49.774;8.650;2023-07-09T08:46:14;8.10;;;7.45;;
22995;SDS011;11664;49.774;8.650;2023-07-09T08:48:53;8.90;;;8.20;;
22995;SDS011;11664;49.774;8.650;2023-07-09T08:51:26;7.38;;;6.72;;
22995;SDS011;11664;49.774;8.650;2023-07-09T08:54:00;8.10;;;7.40;;
22995;SDS011;11664;49.774;8.650;2023-07-09T08:56:29;6.80;;;6.07;;
22995;SDS011;11664;49.774;8.650;2023-07-09T08:58:58;6.32;;;5.78;;
22995;SDS011;11664;49.774;8.650;2023-07-09T09:01:28;8.93;;;5.97;;
22995;SDS011;11664;49.774;8.650;2023-07-09T09:04:07;6.82;;;6.22;;
22995;SDS011;11664;49.774;8.650;2023-07-09T09:06:54;9.52;;;7.53;;
22995;SDS011;11664;49.774;8.650;2023-07-09T09:09:44;6.78;;;5.90;;
22995;SDS011;11664;49.774;8.650;2023-07-09T09:12:29;9.60;;;6.25;;
22995;SDS011;11664;49.774;8.650;2023-07-09T09:15:22;8.75;;;6.72;;
22995;SDS011;11664;49.774;8.650;2023-07-09T09:17:50;9.85;;;9.05;;
22995;SDS011;11664;49.774;8.650;2023-07-09T09:20:21;8.10;;;7.30;;
22995;SDS011;11664;49.774;8.650;2023-07-09T09:22:49;14.38;;;13.15;;
22995;SDS011;11664;49.774;8.650;2023-07-09T09:25:38;11.77;;;10.52;;
22995;SDS011;11664;49.774;8.650;2023-07-09T09:28:07;6.30;;;5.63;;
22995;SDS011;11664;49.774;8.650;2023-07-09T09:30:32;6.28;;;4.93;;
22995;SDS011;11664;49.774;8.650;2023-07-09T09:33:02;7.03;;;5.38;;
22995;SDS011;11664;49.774;8.650;2023-07-09T09:35:33;12.85;;;5.38;;
22995;SDS011;11664;49.774;8.650;2023-07-09T09:38:01;6.05;;;5.55;;
22995;SDS011;11664;49.774;8.650;2023-07-09T09:40:29;7.20;;;6.57;;
22995;SDS011;11664;49.774;8.650;2023-07-09T09:45:35;8.20;;;7.07;;
22995;SDS011;11664;49.774;8.650;2023-07-09T09:48:14;6.07;;;5.47;;
22995;SDS011;11664;49.774;8.650;2023-07-09T09:50:44;5.95;;;5.40;;
22995;SDS011;11664;49.774;8.650;2023-07-09T09:53:16;6.70;;;6.10;;
22995;SDS011;11664;49.774;8.650;2023-07-09T09:55:45;6.85;;;6.25;;
22995;SDS011;11664;49.774;8.650;2023-07-09T09:58:13;7.18;;;6.45;;
22995;SDS011;11664;49.774;8.650;2023-07-09T10:00:40;7.10;;;5.63;;
22995;SDS011;11664;49.774;8.650;2023-07-09T10:03:13;6.03;;;5.40;;
22995;SDS011;11664;49.774;8.650;2023-07-09T10:05:40;8.63;;;5.50;;
22995;SDS011;11664;49.774;8.650;2023-07-09T10:12:03;6.38;;;5.00;;
22995;SDS011;11664;49.774;8.650;2023-07-09T10:14:55;6.97;;;6.28;;
22995;SDS011;11664;49.774;8.650;2023-07-09T10:17:53;6.43;;;5.25;;
22995;SDS011;11664;49.774;8.650;2023-07-09T10:20:24;7.05;;;6.45;;
22995;SDS011;11664;49.774;8.650;2023-07-09T10:25:52;11.60;;;6.38;;
22995;SDS011;11664;49.774;8.650;2023-07-09T10:31:23;6.00;;;4.53;;
22995;SDS011;11664;49.774;8.650;2023-07-09T10:34:10;7.13;;;5.13;;
22995;SDS011;11664;49.774;8.650;2023-07-09T10:39:42;6.60;;;5.40;;
22995;SDS011;11664;49.774;8.650;2023-07-09T10:42:27;5.50;;;5.00;;
22995;SDS011;11664;49.774;8.650;2023-07-09T10:45:11;7.22;;;4.53;;
22995;SDS011;11664;49.774;8.650;2023-07-09T10:47:47;6.25;;;4.93;;
22995;SDS011;11664;49.774;8.650;2023-07-09T10:53:04;7.82;;;5.20;;
22995;SDS011;11664;49.774;8.650;2023-07-09T10:55:47;6.05;;;4.57;;
22995;SDS011;11664;49.774;8.650;2023-07-09T11:01:02;5.85;;;5.35;;
22995;SDS011;11664;49.774;8.650;2023-07-09T11:06:16;6.13;;;5.60;;
22995;SDS011;11664;49.774;8.650;2023-07-09T11:08:51;4.88;;;3.95;;
22995;SDS011;11664;49.774;8.650;2023-07-09T11:11:54;4.35;;;3.95;;
22995;SDS011;11664;49.774;8.650;2023-07-09T11:16:58;7.90;;;4.25;;
22995;SDS011;11664;49.774;8.650;2023-07-09T11:19:25;6.82;;;4.03;;
22995;SDS011;11664;49.774;8.650;2023-07-09T11:24:53;4.47;;;4.15;;
22995;SDS011;11664;49.774;8.650;2023-07-09T11:27:30;5.20;;;4.43;;
22995;SDS011;11664;49.774;8.650;2023-07-09T11:32:24;5.13;;;4.10;;
22995;SDS011;11664;49.774;8.650;2023-07-09T11:34:49;4.70;;;4.30;;
22995;SDS011;11664;49.774;8.650;2023-07-09T11:37:15;6.15;;;4.25;;
22995;SDS011;11664;49.774;8.650;2023-07-09T11:39:48;6.47;;;4.32;;
22995;SDS011;11664;49.774;8.650;2023-07-09T11:42:24;4.28;;;3.88;;
22995;SDS011;11664;49.774;8.650;2023-07-09T11:45:11;4.78;;;4.25;;
22995;SDS011;11664;49.774;8.650;2023-07-09T11:47:40;7.03;;;5.38;;
22995;SDS011;11664;49.774;8.650;2023-07-09T11:50:15;5.95;;;4.85;;
22995;SDS011;11664;49.774;8.650;2023-07-09T11:52:51;5.50;;;5.00;;
22995;SDS011;11664;49.774;8.650;2023-07-09T11:57:57;5.50;;;5.00;;
22995;SDS011;11664;49.774;8.650;2023-07-09T12:00:25;5.50;;;4.72;;
22995;SDS011;11664;49.774;8.650;2023-07-09T12:02:54;6.60;;;4.70;;
22995;SDS011;11664;49.774;8.650;2023-07-09T12:05:21;5.63;;;5.13;;
22995;SDS011;11664;49.774;8.650;2023-07-09T12:07:51;4.85;;;4.45;;
22995;SDS011;11664;49.774;8.650;2023-07-09T12:10:19;6.20;;;4.88;;
22995;SDS011;11664;49.774;8.650;2023-07-09T12:12:53;7.35;;;4.40;;
22995;SDS011;11664;49.774;8.650;2023-07-09T12:15:22;5.40;;;4.80;;
22995;SDS011;11664;49.774;8.650;2023-07-09T12:17:57;5.47;;;4.20;;
22995;SDS011;11664;49.774;8.650;2023-07-09T12:20:29;4.75;;;4.35;;
22995;SDS011;11664;49.774;8.650;2023-07-09T12:22:56;5.45;;;4.65;;
22995;SDS011;11664;49.774;8.650;2023-07-09T12:25:25;7.40;;;4.40;;
22995;SDS011;11664;49.774;8.650;2023-07-09T12:27:53;5.40;;;4.68;;
22995;SDS011;11664;49.774;8.650;2023-07-09T12:30:19;4.88;;;4.38;;
22995;SDS011;11664;49.774;8.650;2023-07-09T12:32:45;6.53;;;4.82;;
22995;SDS011;11664;49.774;8.650;2023-07-09T12:35:14;5.30;;;4.78;;
22995;SDS011;11664;49.774;8.650;2023-07-09T12:37:41;5.00;;;4.50;;
22995;SDS011;11664;49.774;8.650;2023-07-09T12:40:30;5.72;;;4.72;;
22995;SDS011;11664;49.774;8.650;2023-07-09T12:42:55;3.90;;;3.70;;
22995;SDS011;11664;49.774;8.650;2023-07-09T12:45:22;4.65;;;4.10;;
22995;SDS011;11664;49.774;8.650;2023-07-09T12:47:49;7.13;;;4.28;;
22995;SDS011;11664;49.774;8.650;2023-07-09T12:50:17;6.65;;;4.70;;
22995;SDS011;11664;49.774;8.650;2023-07-09T12:52:47;5.40;;;4.72;;
22995;SDS011;11664;49.774;8.650;2023-07-09T12:55:24;5.65;;;4.68;;
22995;SDS011;11664;49.774;8.650;2023-07-09T12:57:53;5.70;;;4.43;;
22995;SDS011;11664;49.774;8.650;2023-07-09T13:00:20;4.55;;;4.10;;
22995;SDS011;11664;49.774;8.650;2023-07-09T13:02:50;6.63;;;4.28;;
22995;SDS011;11664;49.774;8.650;2023-07-09T13:05:21;4.53;;;4.13;;
22995;SDS011;11664;49.774;8.650;2023-07-09T13:08:21;9.00;;;4.50;;
22995;SDS011;11664;49.774;8.650;2023-07-09T13:10:40;5.95;;;4.53;;
22995;SDS011;11664;49.774;8.650;2023-07-09T13:13:10;4.55;;;4.10;;
22995;SDS011;11664;49.774;8.650;2023-07-09T13:15:47;5.22;;;4.57;;
22995;SDS011;11664;49.774;8.650;2023-07-09T13:18:14;6.97;;;4.35;;
22995;SDS011;11664;49.774;8.650;2023-07-09T13:20:41;4.60;;;4.10;;
22995;SDS011;11664;49.774;8.650;2023-07-09T13:23:13;4.97;;;4.15;;
22995;SDS011;11664;49.774;8.650;2023-07-09T13:25:43;7.35;;;4.30;;
22995;SDS011;11664;49.774;8.650;2023-07-09T13:28:11;7.13;;;4.60;;
22995;SDS011;11664;49.774;8.650;2023-07-09T13:33:07;4.80;;;4.40;;
22995;SDS011;11664;49.774;8.650;2023-07-09T13:35:35;5.03;;;4.45;;
22995;SDS011;11664;49.774;8.650;2023-07-09T13:38:00;4.32;;;3.97;;
22995;SDS011;11664;49.774;8.650;2023-07-09T13:40:26;5.32;;;3.90;;
22995;SDS011;11664;49.774;8.650;2023-07-09T13:42:52;4.57;;;4.00;;
22995;SDS011;11664;49.774;8.650;2023-07-09T13:45:23;5.90;;;4.47;;
22995;SDS011;11664;49.774;8.650;2023-07-09T13:47:50;5.05;;;4.22;;
22995;SDS011;11664;49.774;8.650;2023-07-09T13:50:17;5.05;;;3.95;;
22995;SDS011;11664;49.774;8.650;2023-07-09T13:52:43;4.55;;;3.90;;
22995;SDS011;11664;49.774;8.650;2023-07-09T13:55:15;4.75;;;3.72;;
22995;SDS011;11664;49.774;8.650;2023-07-09T13:57:45;5.20;;;4.38;;
22995;SDS011;11664;49.774;8.650;2023-07-09T14:00:12;4.00;;;3.70;;
22995;SDS011;11664;49.774;8.650;2023-07-09T14:02:38;5.03;;;4.25;;
22995;SDS011;11664;49.774;8.650;2023-07-09T14:05:04;5.80;;;4.30;;
22995;SDS011;11664;49.774;8.650;2023-07-09T14:07:32;5.43;;;4.28;;
22995;SDS011;11664;49.774;8.650;2023-07-09T14:09:59;7.15;;;4.00;;
22995;SDS011;11664;49.774;8.650;2023-07-09T14:12:26;4.68;;;4.28;;
22995;SDS011;11664;49.774;8.650;2023-07-09T14:14:53;5.00;;;4.10;;
22995;SDS011;11664;49.774;8.650;2023-07-09T14:17:20;5.15;;;3.83;;
22995;SDS011;11664;49.774;8.650;2023-07-09T14:19:47;5.03;;;4.13;;
22995;SDS011;11664;49.774;8.650;2023-07-09T14:22:18;4.30;;;3.97;;
22995;SDS011;11664;49.774;8.650;2023-07-09T14:24:48;5.55;;;4.65;;
22995;SDS011;11664;49.774;8.650;2023-07-09T14:27:13;5.50;;;4.25;;
22995;SDS011;11664;49.774;8.650;2023-07-09T14:29:39;4.20;;;3.80;;
22995;SDS011;11664;49.774;8.650;2023-07-09T14:32:04;6.30;;;4.30;;
22995;SDS011;11664;49.774;8.650;2023-07-09T14:34:38;5.43;;;4.50;;
22995;SDS011;11664;49.774;8.650;2023-07-09T14:37:06;4.40;;;4.00;;
22995;SDS011;11664;49.774;8.650;2023-07-09T14:39:32;4.63;;;4.22;;
22995;SDS011;11664;49.774;8.650;2023-07-09T14:41:58;5.03;;;4.50;;
22995;SDS011;11664;49.774;8.650;2023-07-09T14:44:28;4.68;;;3.90;;
22995;SDS011;11664;49.774;8.650;2023-07-09T14:46:56;7.47;;;4.03;;
22995;SDS011;11664;49.774;8.650;2023-07-09T14:49:24;4.25;;;3.95;;
22995;SDS011;11664;49.774;8.650;2023-07-09T14:51:50;5.32;;;4.35;;
22995;SDS011;11664;49.774;8.650;2023-07-09T14:54:17;4.07;;;3.70;;
22995;SDS011;11664;49.774;8.650;2023-07-09T14:56:46;3.95;;;3.65;;
22995;SDS011;11664;49.774;8.650;2023-07-09T14:59:12;4.75;;;3.90;;
22995;SDS011;11664;49.774;8.650;2023-07-09T15:01:37;8.93;;;4.28;;
22995;SDS011;11664;49.774;8.650;2023-07-09T15:06:58;4.05;;;3.60;;
22995;SDS011;11664;49.774;8.650;2023-07-09T15:09:25;6.35;;;3.95;;
22995;SDS011;11664;49.774;8.650;2023-07-09T15:11:53;4.80;;;4.40;;
22995;SDS011;11664;49.774;8.650;2023-07-09T15:14:20;5.93;;;3.90;;
22995;SDS011;11664;49.774;8.650;2023-07-09T15:16:46;8.23;;;4.10;;
22995;SDS011;11664;49.774;8.650;2023-07-09T15:19:15;4.82;;;4.30;;
22995;SDS011;11664;49.774;8.650;2023-07-09T15:21:42;4.70;;;4.15;;
22995;SDS011;11664;49.774;8.650;2023-07-09T15:26:57;3.97;;;3.67;;
22995;SDS011;11664;49.774;8.650;2023-07-09T15:29:25;4.97;;;3.78;;
22995;SDS011;11664;49.774;8.650;2023-07-09T15:31:51;5.30;;;3.83;;
22995;SDS011;11664;49.774;8.650;2023-07-09T15:34:17;6.65;;;4.13;;
22995;SDS011;11664;49.774;8.650;2023-07-09T15:36:47;18.40;;;3.88;;
22995;SDS011;11664;49.774;8.650;2023-07-09T15:39:15;3.90;;;3.50;;
22995;SDS011;11664;49.774;8.650;2023-07-09T15:41:41;4.07;;;3.70;;